Weather at Flugplatz Biel-Kappelen

Public forecast

Using degrees Celsius for public forecast. Weather courtesy of forecast.io.

Closest aviation weather report (METAR) to Flugplatz Biel-Kappelen

Closest report is Grenchen Airport, 7.6 nm (14.1 km) NE. Retrieved 2020/10/25 16:20 UTC (0 seconds ago):

LSZG 251620Z 18004KT CAVOK 13/09 Q1008

Closest aviation forecast (TAF) to Flugplatz Biel-Kappelen

Forecast is more than 6 hours old.

Closest forecast is Payerne Air Base, 21.3 nm (39.5 km) SW. Retrieved 2020/10/25 10:00 UTC (6 hours ago):

TAF LSMP 250925Z 2510/2616 VRB03KT CAVOK BECMG 2518/2520 9999 BKN080 TEMPO 2601/2610 4500 RA BKN014